< Cyclone 199804 1998 Season Cyclone 199806 >
Cyclone 199805 (TIFFANY)
General InformationTrack Information on Google MapsDetailed Wind InformationList of All Images || ResourceGoogle EarthGE AnimationAtom FeedGeoJSON
Detalied Best Track (Time Zone = UTC)
Year Month Day Hour Lat. Long. Pressure (hPa) Wind (kt) Class Image Chart
1998 1 22 10 -14.9 124.5 1001 25 2 Image --
1998 1 22 22 -15.9 125.0 1002 23 2 Image --
1998 1 23 04 -16.2 124.7 1002 23 2 Image --
1998 1 23 10 -16.3 124.3 1001 25 2 Image --
1998 1 23 16 -16.5 123.9 1001 25 2 Image --
1998 1 23 22 -16.6 123.4 1001 25 2 Image --
1998 1 24 04 -16.7 123.0 1001 25 2 Image --
1998 1 24 10 -16.8 122.6 1000 27 2 Image --
1998 1 24 16 -17.1 122.0 995 35 3 Image --
1998 1 24 22 -17.0 121.2 985 49 4 Image --
1998 1 25 04 -17.4 120.6 980 54 4 Image --
1998 1 25 10 -17.6 119.9 975 60 4 Image --
1998 1 25 16 -17.8 119.5 970 64 5 Image --
1998 1 25 22 -18.1 119.1 965 70 5 Image --
1998 1 26 04 -18.2 118.8 960 76 5 Image --
1998 1 26 10 -18.3 118.5 955 80 5 Image --
1998 1 26 13 -18.3 118.3 950 84 5 Image --
1998 1 26 16 -18.3 118.0 940 93 5 Image --
1998 1 26 19 -18.4 117.8 940 93 5 Image --
1998 1 26 22 -18.5 117.6 950 84 5 Image --
1998 1 27 01 -18.6 117.3 955 80 5 Image --
1998 1 27 04 -18.8 117.0 955 80 5 Image --
1998 1 27 07 -19.0 116.6 945 89 5 Image --
1998 1 27 10 -19.1 116.2 945 89 5 Image --
1998 1 27 13 -19.1 115.7 950 84 5 Image --
1998 1 27 16 -19.0 115.2 955 80 5 Image --
1998 1 27 19 -19.1 114.2 955 80 5 Image --
1998 1 27 22 -19.1 114.2 955 80 5 Image --
1998 1 28 04 -19.3 113.2 955 80 5 Image --
1998 1 28 10 -19.5 112.2 960 76 5 Image --
1998 1 28 16 -19.5 111.2 970 64 5 Image --
1998 1 28 22 -19.5 110.4 985 49 4 Image --
1998 1 29 04 -19.5 109.7 985 49 4 Image --
1998 1 29 10 -19.5 109.1 985 49 4 Image --
1998 1 29 16 -19.5 108.6 990 41 3 Image --
1998 1 29 22 -19.4 108.2 995 35 3 Image --
1998 1 30 04 -19.4 107.7 997 31 2 Image --
1998 1 30 10 -19.5 107.2 1000 27 2 Image --
1998 1 30 16 -19.5 106.8 1000 27 2 Image --
1998 1 30 22 -19.5 106.4 1002 23 2 Image --
1998 1 31 04 -19.4 105.9 1002 23 2 Image --
1998 1 31 10 -19.3 105.5 1002 23 2 Image --
1998 1 31 16 -19.1 105.2 1002 23 2 Image --
1998 1 31 22 -18.9 104.9 1004 21 2 Image --
1998 2 1 04 -18.6 104.6 1004 21 2 Image --
1998 2 1 10 -18.5 104.3 1004 21 2 Image --
1998 2 2 04 -17.6 100.7 1006 0 0 Image --
1998 2 2 10 -17.5 99.8 1006 0 0 Image --
< Cyclone 199804 1998 Season Cyclone 199806 >

Help